Terminal Aerodrome Forecast
Issued by NWS

Home | Current Version | Previous Version | Text Only | Print | Product List | Glossary On
Versions: 1 2 3 4 5 6 7 8 9 10 11 12 13 14 15 16 17 18
500
FTUS44 KCRP 201720
TAFALI
TAF
KALI 201720Z 2018/2118 15010KT P6SM FEW025 SCT040
     FM210900 16004KT 4SM BR BKN015
      TEMPO 2110/2114 1/2SM FG OVC008
     FM211500 17007KT P6SM FEW015 SCT035=

USA.gov is the U.S. government's official web portal to all federal, state and local government web resources and services.